Airfield :
LOGIN :

Register | Disclaimer

   EN    FR    IT 

 










Legend :    VFR   Marginal VFR   IFR   Intensive IFR   Very Intensive IFR
Visi :
Ceiling :
>= 8 km
>= 3000ft
5 to 8 km
1000 to 3000 ft
1500m to 5 km
500 to 1000 ft
800 to 1500m
200 to 500 ft
< 800m
< 200 ft
Symbols :   Thunderstorms  Fog  Heavy snow  Heavy precipitations  Wind > 20 kt
SIGMETs :     Misc.  Thunderstorms  Icing  Turbulence  Mountain Waves  Volcanic Ashes







- Airport Elevation : 87 ft
- IATA code : FSC
- Download approach charts


LFKF - Figari

CURRENT METAR :
  • 281230Z AUTO 23015KT 200V260 CAVOK 31/20 Q1014 TEMPO 24025G35KT

EXPIRED METARs :
  • 281200Z AUTO 22020KT CAVOK 29/21 Q1014 TEMPO 24025G35KT
  • 281130Z AUTO 22021KT CAVOK 29/21 Q1014 TEMPO 24025G35KT
  • 281100Z AUTO 22022KT CAVOK 28/21 Q1014 TEMPO 24025G35KT
  • 281030Z AUTO 22021KT CAVOK 28/20 Q1014 TEMPO 24025G35KT
  • 281000Z AUTO 23021KT CAVOK 28/20 Q1014 TEMPO 24025G35KT

TAF TAF LFKF
Valid from the 28 at 09:00 until the 29 at 09:00 UTC


280800Z 2809/2909 24015G25KT 9999 FEW035
TEMPO 2809/2812 BKN020
TEMPO 2809/2818 24025G35KT
BECMG 2821/2824 24010KT
No reported NOTAMs for that airfield.



MET'MAP, your aeronautical weather chart ! - Copyright ORBIFLY December 2007 - Disclaimer

ORBIFLY MET'MAP TEAM :

Programming & Development : Alexandra Zaïnal
Concept & Development : Baudouin d'Aumeries
Co-Development & Prog : Marc-Olivier Méhu
Technical & hardware support : Manuel Goepfert

Contact : metmap@orbifly.com




SOURCES & CREDITS :

   NOAA